Time;durP1;ratioP1;P1;durP2;ratioP2;P2;SDS_P1;SDS_P2;PMS_P1;PMS_P2;Temp;Humidity;BMP_temperature;BMP_pressure;BME280_temperature;BME280_humidity;BME280_pressure;Samples;Min_cycle;Max_cycle;Signal;HPM_P1;HPM_P2
2021/01/13 00:01:12;;;;;;;30.95;23.98;;;5.20;1.00;;;;;;5095788;28;20024;-84
2021/01/13 00:03:38;;;;;;;34.63;26.83;;;5.00;1.00;;;;;;5094634;28;20141;-85
2021/01/13 00:06:03;;;;;;;27.50;22.67;;;4.70;1.00;;;;;;5094673;28;20024;-84
2021/01/13 00:08:29;;;;;;;27.83;22.77;;;4.70;1.00;;;;;;5107995;28;20031;-84
2021/01/13 00:10:55;;;;;;;28.13;22.33;;;4.70;1.00;;;;;;5105067;28;20042;-84
2021/01/13 00:13:20;;;;;;;25.70;21.08;;;4.90;1.00;;;;;;5113933;28;20023;-84
2021/01/13 00:15:46;;;;;;;28.10;21.95;;;4.90;1.00;;;;;;5114855;28;20028;-85
2021/01/13 00:18:12;;;;;;;27.13;21.08;;;4.80;1.00;;;;;;5106416;28;20428;-84
2021/01/13 00:20:37;;;;;;;25.35;20.27;;;4.90;1.00;;;;;;5104058;28;20114;-84
2021/01/13 00:23:03;;;;;;;25.33;21.38;;;4.90;1.00;;;;;;5099083;28;20039;-84
2021/01/13 00:25:29;;;;;;;24.92;20.10;;;4.90;1.00;;;;;;5099541;28;20028;-84
2021/01/13 00:27:55;;;;;;;26.08;20.55;;;4.80;1.00;;;;;;5093976;28;20066;-84
2021/01/13 00:30:21;;;;;;;24.50;19.48;;;5.10;1.00;;;;;;5092574;28;20054;-84
2021/01/13 00:32:47;;;;;;;23.13;19.67;;;4.90;1.00;;;;;;5098026;28;20500;-84
2021/01/13 00:35:14;;;;;;;25.20;19.92;;;4.90;1.00;;;;;;5113048;28;20020;-84
2021/01/13 00:37:40;;;;;;;26.77;20.85;;;5.00;1.00;;;;;;5101353;28;20057;-84
2021/01/13 00:40:08;;;;;;;26.30;19.83;;;4.80;1.00;;;;;;5092787;28;20028;-84
2021/01/13 00:42:42;;;;;;;24.40;19.15;;;5.00;1.00;;;;;;5093482;28;20482;-84
2021/01/13 00:45:08;;;;;;;24.65;19.58;;;5.30;1.00;;;;;;5093710;28;20473;-84
2021/01/13 00:47:34;;;;;;;26.73;20.77;;;4.90;1.00;;;;;;5092404;28;20508;-84
2021/01/13 00:49:59;;;;;;;23.70;19.30;;;4.90;1.00;;;;;;5092362;28;20048;-84
2021/01/13 00:52:25;;;;;;;25.38;17.90;;;4.90;1.00;;;;;;5091577;28;20026;-84
2021/01/13 00:54:50;;;;;;;24.95;20.02;;;5.00;1.00;;;;;;5095564;28;20385;-85
2021/01/13 00:57:16;;;;;;;20.52;17.25;;;5.00;1.00;;;;;;5091772;28;20032;-86
2021/01/13 00:59:42;;;;;;;21.52;17.05;;;4.90;1.00;;;;;;5092226;28;20016;-84
2021/01/13 01:02:07;;;;;;;23.38;17.30;;;5.40;1.00;;;;;;5093529;28;20031;-85
2021/01/13 01:04:33;;;;;;;27.75;19.70;;;4.80;1.00;;;;;;5095390;28;20055;-84
2021/01/13 01:07:02;;;;;;;21.27;17.95;;;5.00;1.00;;;;;;5112933;28;20457;-84
2021/01/13 01:09:28;;;;;;;22.52;17.42;;;5.00;1.00;;;;;;5093452;28;20027;-84
2021/01/13 01:11:54;;;;;;;21.52;17.58;;;5.00;1.00;;;;;;5092058;28;20024;-84
2021/01/13 01:14:19;;;;;;;22.70;18.08;;;5.00;1.00;;;;;;5092087;28;20043;-84
2021/01/13 01:16:45;;;;;;;21.88;18.63;;;5.00;1.00;;;;;;5099946;28;20012;-84
2021/01/13 01:19:10;;;;;;;25.25;20.20;;;5.30;1.00;;;;;;5112949;28;20036;-84
2021/01/13 01:21:43;;;;;;;23.40;19.00;;;5.00;1.00;;;;;;5113598;28;20038;-84
2021/01/13 01:24:09;;;;;;;21.05;17.95;;;5.10;1.00;;;;;;5111358;28;20015;-85
2021/01/13 01:26:48;;;;;;;22.85;17.52;;;4.80;1.00;;;;;;5112675;28;20031;-84
2021/01/13 01:29:14;;;;;;;24.08;19.80;;;5.10;1.00;;;;;;5113577;28;20534;-84
2021/01/13 01:31:40;;;;;;;24.02;18.17;;;5.20;1.00;;;;;;5113590;28;20024;-84
2021/01/13 01:34:06;;;;;;;23.67;18.80;;;5.40;1.00;;;;;;5113545;28;20089;-84
2021/01/13 01:36:33;;;;;;;20.52;17.45;;;5.10;1.00;;;;;;5113428;28;20115;-84
2021/01/13 01:38:58;;;;;;;23.98;17.67;;;5.40;1.00;;;;;;5101352;28;20048;-85
2021/01/13 01:41:25;;;;;;;22.92;17.92;;;5.10;1.00;;;;;;5091953;28;20101;-84
2021/01/13 01:43:50;;;;;;;21.40;17.60;;;5.50;1.00;;;;;;5093007;28;20024;-84
2021/01/13 01:46:17;;;;;;;16.45;14.02;;;5.10;1.00;;;;;;5092979;28;20473;-84
2021/01/13 01:48:57;;;;;;;22.85;18.35;;;5.40;1.00;;;;;;5103537;28;20019;-84
2021/01/13 01:51:43;;;;;;;24.52;18.35;;;5.20;1.00;;;;;;5111894;28;20034;-84
2021/01/13 01:54:16;;;;;;;21.63;16.77;;;5.20;1.00;;;;;;5110162;28;20069;-85
2021/01/13 01:56:43;;;;;;;18.23;15.00;;;5.40;1.00;;;;;;5113302;28;20069;-84
2021/01/13 01:59:11;;;;;;;13.38;11.65;;;5.40;1.00;;;;;;5099004;28;20035;-84
2021/01/13 02:01:40;;;;;;;8.90;7.60;;;5.60;1.00;;;;;;5092840;28;20089;-84
2021/01/13 02:04:12;;;;;;;14.68;11.07;;;5.60;1.00;;;;;;5092911;28;20099;-84
2021/01/13 02:06:59;;;;;;;17.60;11.65;;;5.70;1.00;;;;;;5092690;28;20024;-84
2021/01/13 02:09:28;;;;;;;19.55;13.57;;;5.80;1.00;;;;;;5092168;28;20028;-84
2021/01/13 02:11:55;;;;;;;20.15;13.85;;;5.60;1.00;;;;;;5102497;28;20121;-84
2021/01/13 02:14:21;;;;;;;27.80;16.25;;;5.70;1.00;;;;;;5111188;28;20048;-84
2021/01/13 02:16:55;;;;;;;23.75;16.80;;;5.60;1.00;;;;;;5113451;28;20094;-84
2021/01/13 02:19:38;;;;;;;20.92;16.35;;;5.60;1.00;;;;;;5105234;28;20032;-84
2021/01/13 02:22:10;;;;;;;22.75;18.10;;;5.30;1.00;;;;;;5104759;28;20051;-84
2021/01/13 02:24:54;;;;;;;22.70;17.05;;;5.20;1.00;;;;;;5108186;28;20134;-84
2021/01/13 02:27:53;;;;;;;21.83;16.90;;;5.20;1.00;;;;;;5112888;28;20028;-84
2021/01/13 02:30:33;;;;;;;20.05;14.98;;;5.30;1.00;;;;;;5111798;28;20392;-84
2021/01/13 02:33:03;;;;;;;22.20;16.63;;;5.50;1.00;;;;;;5102851;28;20480;-84
2021/01/13 02:35:37;;;;;;;19.63;15.13;;;5.50;1.00;;;;;;5116683;28;20027;-84
2021/01/13 02:38:12;;;;;;;16.17;12.88;;;5.40;1.00;;;;;;5116299;28;20092;-84
2021/01/13 02:40:48;;;;;;;8.90;7.05;;;5.60;1.00;;;;;;5115033;28;20041;-84
2021/01/13 02:43:20;;;;;;;5.88;4.70;;;5.70;1.00;;;;;;5116468;28;20420;-84
2021/01/13 02:45:48;;;;;;;5.30;3.70;;;5.80;1.00;;;;;;5115170;28;20102;-84
2021/01/13 02:48:20;;;;;;;3.13;2.70;;;6.10;1.00;;;;;;5108252;28;20081;-84
2021/01/13 02:50:55;;;;;;;3.60;2.80;;;6.10;1.00;;;;;;5096365;28;20024;-85
2021/01/13 02:53:20;;;;;;;2.95;2.40;;;6.20;1.00;;;;;;5095633;28;20545;-84
2021/01/13 02:55:46;;;;;;;3.53;2.42;;;6.30;1.00;;;;;;5094471;28;20112;-84
2021/01/13 02:58:18;;;;;;;2.65;2.05;;;6.30;1.00;;;;;;5113365;28;20035;-84
2021/01/13 03:00:44;;;;;;;4.30;2.80;;;6.40;1.00;;;;;;5116107;28;20027;-84
2021/01/13 03:03:11;;;;;;;4.57;3.03;;;6.50;1.00;;;;;;5104423;28;20016;-84
2021/01/13 03:05:37;;;;;;;4.97;3.08;;;6.50;1.00;;;;;;5096092;28;20035;-84
2021/01/13 03:08:06;;;;;;;3.70;2.80;;;6.50;1.00;;;;;;5106527;28;20019;-84
2021/01/13 03:10:38;;;;;;;3.03;2.60;;;6.40;1.00;;;;;;5110944;28;20370;-84
2021/01/13 03:13:07;;;;;;;4.30;2.88;;;6.50;1.00;;;;;;5094128;28;20058;-84
2021/01/13 03:15:36;;;;;;;3.83;2.05;;;6.60;1.00;;;;;;5101296;28;20433;-84
2021/01/13 03:18:07;;;;;;;2.40;1.90;;;6.60;1.00;;;;;;5103389;28;20032;-84
2021/01/13 03:20:35;;;;;;;3.28;2.28;;;6.60;1.00;;;;;;5100253;28;20024;-84
2021/01/13 03:23:04;;;;;;;2.97;2.30;;;6.60;1.00;;;;;;5095274;28;20028;-84
2021/01/13 03:25:45;;;;;;;3.33;2.38;;;6.60;1.00;;;;;;5115731;28;20052;-83
2021/01/13 03:28:13;;;;;;;3.55;2.22;;;6.80;1.00;;;;;;5114568;28;20045;-84
2021/01/13 03:30:41;;;;;;;3.75;2.38;;;6.80;1.00;;;;;;5114370;28;20477;-84
2021/01/13 03:33:25;;;;;;;2.15;1.95;;;6.70;1.00;;;;;;5112822;28;20031;-84
2021/01/13 03:36:05;;;;;;;2.75;1.92;;;6.80;1.00;;;;;;5098022;28;20063;-84
2021/01/13 03:38:32;;;;;;;2.03;1.77;;;6.80;1.00;;;;;;5094924;28;20051;-83
2021/01/13 03:41:07;;;;;;;2.22;2.03;;;6.80;1.00;;;;;;5093746;28;20020;-84
2021/01/13 03:43:39;;;;;;;2.85;2.10;;;6.80;1.00;;;;;;5094831;28;20451;-83
2021/01/13 03:46:09;;;;;;;3.10;2.28;;;6.80;1.00;;;;;;5127746;27;20044;-84
2021/01/13 03:48:46;;;;;;;4.22;2.40;;;6.90;1.00;;;;;;5086208;28;20036;-84
2021/01/13 03:51:30;;;;;;;20.30;12.25;;;6.80;1.00;;;;;;5093170;28;20031;-84
2021/01/13 03:54:00;;;;;;;24.50;15.23;;;6.70;1.00;;;;;;5093377;28;20031;-84
2021/01/13 03:56:27;;;;;;;28.17;16.20;;;6.40;1.00;;;;;;5094802;28;20582;-84
2021/01/13 03:58:54;;;;;;;26.85;18.20;;;6.10;1.00;;;;;;5094337;28;20039;-84
2021/01/13 04:01:23;;;;;;;25.77;17.60;;;6.10;1.00;;;;;;5110330;28;20115;-84
2021/01/13 04:04:24;;;;;;;29.25;18.20;;;6.10;1.00;;;;;;5092319;28;20024;-84
2021/01/13 04:06:59;;;;;;;25.15;16.73;;;5.90;1.00;;;;;;5082324;28;20070;-84
2021/01/13 04:09:25;;;;;;;20.95;16.75;;;5.70;1.00;;;;;;5094605;28;20024;-84
2021/01/13 04:12:08;;;;;;;21.98;16.92;;;5.70;1.00;;;;;;5094332;28;20441;-84
2021/01/13 04:14:57;;;;;;;24.08;16.67;;;5.70;1.00;;;;;;5094223;28;20031;-84
2021/01/13 04:17:25;;;;;;;22.92;16.50;;;5.60;1.00;;;;;;5104706;28;20020;-84
2021/01/13 04:19:51;;;;;;;22.60;16.58;;;5.60;1.00;;;;;;5095384;28;20063;-84
2021/01/13 04:22:19;;;;;;;21.73;15.30;;;5.60;1.00;;;;;;5094173;28;20362;-85
2021/01/13 04:24:47;;;;;;;19.50;15.85;;;5.70;1.00;;;;;;5092897;28;20024;-84
2021/01/13 04:27:15;;;;;;;21.83;16.48;;;5.90;1.00;;;;;;5093856;28;20039;-84
2021/01/13 04:29:41;;;;;;;22.73;15.68;;;5.70;1.00;;;;;;5093896;28;20477;-84
2021/01/13 04:32:08;;;;;;;17.73;14.60;;;5.50;1.00;;;;;;5092670;28;20023;-84
2021/01/13 04:34:35;;;;;;;21.08;14.55;;;5.40;1.00;;;;;;5092540;28;20069;-84
2021/01/13 04:37:04;;;;;;;16.60;13.13;;;5.40;1.00;;;;;;5092383;28;20113;-84
2021/01/13 04:39:31;;;;;;;17.23;15.00;;;5.50;1.00;;;;;;5093895;28;20036;-84
2021/01/13 04:42:02;;;;;;;16.85;14.10;;;5.40;1.00;;;;;;5092355;28;20089;-84
2021/01/13 04:44:44;;;;;;;16.95;14.02;;;5.50;1.00;;;;;;5092373;28;20109;-84
2021/01/13 04:47:10;;;;;;;17.42;14.13;;;5.60;1.00;;;;;;5094583;28;20374;-84
2021/01/13 04:49:38;;;;;;;18.77;14.38;;;5.60;1.00;;;;;;5093657;28;20103;-84
2021/01/13 04:52:09;;;;;;;17.00;14.05;;;5.70;1.00;;;;;;5091990;28;20386;-84
2021/01/13 04:54:37;;;;;;;20.75;14.70;;;5.70;1.00;;;;;;5106527;28;20024;-84
2021/01/13 04:57:19;;;;;;;21.10;14.40;;;5.70;1.00;;;;;;5113807;27;20020;-84
2021/01/13 05:00:03;;;;;;;21.63;14.43;;;5.70;1.00;;;;;;5112628;28;20019;-84
2021/01/13 05:03:18;;;;;;;11.95;9.15;;;5.80;1.00;;;;;;5093800;28;20031;-84
2021/01/13 05:05:48;;;;;;;4.78;4.18;;;5.90;1.00;;;;;;5071197;28;20040;-84
2021/01/13 05:08:25;;;;;;;4.80;4.00;;;6.20;1.00;;;;;;5053959;28;20371;-84
2021/01/13 05:10:56;;;;;;;4.80;3.78;;;6.30;1.00;;;;;;5071069;28;20052;-84
2021/01/13 05:13:23;;;;;;;4.63;3.65;;;6.40;1.00;;;;;;5082328;28;20033;-84
2021/01/13 05:15:56;;;;;;;3.40;3.05;;;6.50;1.00;;;;;;5054970;28;20500;-84
2021/01/13 05:18:49;;;;;;;3.17;2.53;;;6.50;1.00;;;;;;5074412;28;20086;-84
2021/01/13 05:21:23;;;;;;;2.55;2.33;;;6.60;1.00;;;;;;5090605;28;20040;-84
2021/01/13 05:23:58;;;;;;;4.18;2.70;;;6.60;1.00;;;;;;5091277;28;20032;-84
2021/01/13 05:26:26;;;;;;;6.30;3.70;;;6.70;1.00;;;;;;5091127;28;20047;-84
2021/01/13 05:29:03;;;;;;;5.30;3.50;;;6.70;1.00;;;;;;5091176;28;20452;-84
2021/01/13 05:31:33;;;;;;;4.10;3.42;;;6.80;1.00;;;;;;5080680;28;20135;-84
2021/01/13 05:34:01;;;;;;;4.35;3.05;;;6.90;1.00;;;;;;5054034;28;20081;-83
2021/01/13 05:36:33;;;;;;;3.88;2.58;;;6.90;1.00;;;;;;5069851;28;20040;-84
2021/01/13 05:39:11;;;;;;;5.40;3.85;;;6.90;1.00;;;;;;5062975;28;20096;-84
2021/01/13 05:41:38;;;;;;;12.95;8.32;;;6.90;1.00;;;;;;5098173;28;20484;-84
2021/01/13 05:44:05;;;;;;;13.63;10.98;;;7.00;1.00;;;;;;5092589;28;20028;-84
2021/01/13 05:46:47;;;;;;;17.73;11.15;;;6.60;1.00;;;;;;5101888;28;20116;-84
2021/01/13 05:49:13;;;;;;;13.27;10.73;;;6.30;1.00;;;;;;5111783;28;20028;-84
2021/01/13 05:51:41;;;;;;;13.23;10.60;;;6.20;1.00;;;;;;5098054;28;20020;-84
2021/01/13 05:54:13;;;;;;;14.30;10.23;;;6.10;1.00;;;;;;5100594;28;20019;-84
2021/01/13 05:56:39;;;;;;;14.50;10.65;;;6.00;1.00;;;;;;5098572;28;20024;-84
2021/01/13 05:59:07;;;;;;;13.45;10.85;;;5.90;1.00;;;;;;5106883;28;20027;-84
2021/01/13 06:01:56;;;;;;;13.68;10.63;;;6.00;1.00;;;;;;5106391;28;20051;-84
2021/01/13 06:04:23;;;;;;;15.98;10.90;;;5.90;1.00;;;;;;5113500;28;20481;-84
2021/01/13 06:07:14;;;;;;;20.63;16.98;;;5.70;1.00;;;;;;5096669;28;20033;-84
2021/01/13 06:09:41;;;;;;;47.72;31.83;;;5.80;1.00;;;;;;5096724;28;20066;-84
2021/01/13 06:12:14;;;;;;;15.63;11.80;;;5.90;1.00;;;;;;5095246;28;20500;-84
2021/01/13 06:14:41;;;;;;;20.30;15.68;;;5.80;1.00;;;;;;5096652;28;20418;-84
2021/01/13 06:17:07;;;;;;;21.88;14.18;;;5.90;1.00;;;;;;5095086;28;20408;-84
2021/01/13 06:19:33;;;;;;;15.65;11.30;;;5.80;1.00;;;;;;5094686;28;20032;-84
2021/01/13 06:22:10;;;;;;;15.13;11.05;;;5.90;1.00;;;;;;5096978;28;20035;-84
2021/01/13 06:24:37;;;;;;;15.07;10.80;;;5.90;1.00;;;;;;5095110;28;20050;-84
2021/01/13 06:27:19;;;;;;;12.65;10.48;;;5.90;1.00;;;;;;5115107;28;20030;-84
2021/01/13 06:30:01;;;;;;;15.65;11.68;;;6.00;1.00;;;;;;5116182;27;20497;-84
2021/01/13 06:32:38;;;;;;;16.55;12.10;;;5.80;1.00;;;;;;5101671;28;20032;-84
2021/01/13 06:35:36;;;;;;;55.72;37.38;;;5.90;1.00;;;;;;5096324;28;20020;-84
2021/01/13 06:38:09;;;;;;;29.00;17.92;;;5.90;1.00;;;;;;5094834;28;20048;-84
2021/01/13 06:40:36;;;;;;;15.57;12.48;;;6.10;1.00;;;;;;5096250;28;20077;-84
2021/01/13 06:43:14;;;;;;;12.73;9.63;;;6.00;1.00;;;;;;5094590;28;20024;-84
2021/01/13 06:45:41;;;;;;;12.75;9.38;;;6.00;1.00;;;;;;5102493;28;20027;-84
2021/01/13 06:48:07;;;;;;;15.40;9.63;;;6.10;1.00;;;;;;5114734;28;20031;-84
2021/01/13 06:50:38;;;;;;;14.63;9.52;;;6.00;1.00;;;;;;5116449;28;20030;-85
2021/01/13 06:53:08;;;;;;;12.75;9.68;;;5.90;1.00;;;;;;5116579;28;20026;-84
2021/01/13 06:55:34;;;;;;;12.75;9.68;;;6.00;1.00;;;;;;5114177;28;20026;-84
2021/01/13 06:58:17;;;;;;;13.45;9.40;;;6.00;1.00;;;;;;5108931;28;20135;-84
2021/01/13 07:00:45;;;;;;;14.50;11.10;;;6.10;1.00;;;;;;5106207;28;20031;-84
2021/01/13 07:03:20;;;;;;;18.00;11.07;;;5.90;1.00;;;;;;5115148;28;20027;-85
2021/01/13 07:05:46;;;;;;;16.30;10.27;;;5.80;1.00;;;;;;5114854;28;20043;-85
2021/01/13 07:08:11;;;;;;;14.40;8.68;;;5.70;1.00;;;;;;5105826;28;20027;-89
2021/01/13 07:10:38;;;;;;;12.25;8.82;;;5.80;1.00;;;;;;5113962;28;20020;-83
2021/01/13 07:13:08;;;;;;;9.25;7.28;;;5.80;1.00;;;;;;5115375;28;20412;-84
2021/01/13 07:15:35;;;;;;;11.27;7.93;;;5.80;1.00;;;;;;5110204;28;20524;-85
2021/01/13 07:18:02;;;;;;;13.18;8.15;;;5.90;1.00;;;;;;5095077;28;20016;-85
2021/01/13 07:20:30;;;;;;;9.93;7.03;;;6.00;1.00;;;;;;5096004;28;20081;-86
2021/01/13 07:22:57;;;;;;;11.23;7.18;;;6.00;1.00;;;;;;5101921;28;20020;-85
2021/01/13 07:25:23;;;;;;;11.00;7.30;;;6.10;1.00;;;;;;5100295;28;20100;-86
2021/01/13 07:27:52;;;;;;;12.25;8.07;;;6.00;1.00;;;;;;5094666;28;20107;-85
2021/01/13 07:30:19;;;;;;;12.40;9.05;;;6.10;1.00;;;;;;5103145;28;20069;-85
2021/01/13 07:32:58;;;;;;;14.27;8.93;;;6.00;1.00;;;;;;5128289;27;20087;-87
2021/01/13 07:35:30;;;;;;;15.02;9.48;;;6.20;1.00;;;;;;5134622;27;20055;-86
2021/01/13 07:38:03;;;;;;;13.90;9.77;;;6.20;1.00;;;;;;5135911;27;20048;-87
2021/01/13 07:40:33;;;;;;;16.38;10.63;;;6.30;1.00;;;;;;5135942;27;20035;-86
2021/01/13 07:43:07;;;;;;;16.25;11.75;;;6.30;1.00;;;;;;5134249;27;20019;-84
2021/01/13 07:45:44;;;;;;;21.88;13.68;;;6.40;1.00;;;;;;5115455;27;20035;-84
2021/01/13 07:48:13;;;;;;;32.30;20.17;;;6.40;1.00;;;;;;5115304;28;20023;-87
2021/01/13 07:50:44;;;;;;;19.27;12.95;;;6.30;1.00;;;;;;5113808;28;20028;-84
2021/01/13 07:53:26;;;;;;;21.17;13.98;;;6.30;1.00;;;;;;5115413;28;20020;-85
2021/01/13 07:55:59;;;;;;;25.75;13.90;;;6.20;1.00;;;;;;5114799;28;20016;-84
2021/01/13 07:58:27;;;;;;;20.27;11.80;;;6.40;1.00;;;;;;5112705;28;20031;-84
2021/01/13 08:01:04;;;;;;;17.27;12.05;;;6.30;1.00;;;;;;5094300;28;20103;-85
2021/01/13 08:03:49;;;;;;;15.30;11.40;;;6.10;1.00;;;;;;5093279;28;20028;-84
2021/01/13 08:06:31;;;;;;;22.05;11.60;;;6.20;1.00;;;;;;5093205;28;20119;-85
2021/01/13 08:09:06;;;;;;;20.33;13.13;;;6.10;1.00;;;;;;5093123;28;20107;-85
2021/01/13 08:11:59;;;;;;;22.98;14.02;;;6.10;1.00;;;;;;5094137;28;20028;-84
2021/01/13 08:15:02;;;;;;;19.60;13.18;;;6.00;1.00;;;;;;5095554;28;20051;-84
2021/01/13 08:17:54;;;;;;;20.45;14.50;;;6.20;1.00;;;;;;5113291;28;20028;-84
2021/01/13 08:20:39;;;;;;;18.25;13.35;;;6.30;1.00;;;;;;5114606;28;20015;-84
2021/01/13 08:23:16;;;;;;;20.05;15.07;;;6.20;1.00;;;;;;5114668;28;20062;-85
2021/01/13 08:25:53;;;;;;;20.08;13.80;;;6.30;1.00;;;;;;5112886;28;20027;-84
2021/01/13 08:28:20;;;;;;;16.65;11.45;;;6.40;1.00;;;;;;5107943;28;20028;-84
2021/01/13 08:30:49;;;;;;;15.60;11.50;;;6.20;1.00;;;;;;5092441;28;20233;-84
2021/01/13 08:33:23;;;;;;;13.43;10.68;;;6.10;1.00;;;;;;5092529;28;20024;-85
2021/01/13 08:35:58;;;;;;;16.92;10.40;;;6.20;1.00;;;;;;5092677;28;20024;-84
2021/01/13 08:38:25;;;;;;;19.83;11.60;;;6.30;1.00;;;;;;5092335;28;20051;-85
2021/01/13 08:40:51;;;;;;;17.92;11.77;;;6.10;1.00;;;;;;5093450;28;20032;-85
2021/01/13 08:43:18;;;;;;;18.20;12.18;;;6.20;1.00;;;;;;5096483;28;20057;-84
2021/01/13 08:45:51;;;;;;;17.80;12.65;;;6.20;1.00;;;;;;5126142;27;20117;-84
2021/01/13 08:48:19;;;;;;;17.85;11.88;;;6.30;1.00;;;;;;5092232;28;20508;-84
2021/01/13 08:51:02;;;;;;;15.05;11.60;;;6.40;1.00;;;;;;5093599;28;20017;-84
2021/01/13 08:53:28;;;;;;;19.30;12.43;;;6.40;1.00;;;;;;5093434;28;20066;-84
2021/01/13 08:55:55;;;;;;;19.95;12.95;;;6.40;1.00;;;;;;5093281;28;20051;-84
2021/01/13 08:58:33;;;;;;;20.48;11.77;;;6.40;1.00;;;;;;5098699;28;20538;-84
2021/01/13 09:01:01;;;;;;;16.48;12.10;;;6.60;1.00;;;;;;5113996;28;20028;-84
2021/01/13 09:03:27;;;;;;;17.83;12.55;;;6.60;1.00;;;;;;5113827;28;20023;-84
2021/01/13 09:05:56;;;;;;;35.75;24.00;;;6.60;1.00;;;;;;5113687;28;20047;-84
2021/01/13 09:08:32;;;;;;;25.15;17.73;;;6.50;1.00;;;;;;5112130;28;20032;-84
2021/01/13 09:10:58;;;;;;;21.17;14.38;;;6.50;1.00;;;;;;5113671;28;20072;-85
2021/01/13 09:13:50;;;;;;;24.60;14.23;;;6.70;1.00;;;;;;5105212;28;20016;-84
2021/01/13 09:16:25;;;;;;;24.60;15.00;;;6.80;1.00;;;;;;5092048;28;20556;-85
2021/01/13 09:19:08;;;;;;;21.75;13.60;;;6.80;1.00;;;;;;5093239;28;20102;-84
2021/01/13 09:21:39;;;;;;;19.85;13.57;;;6.80;1.00;;;;;;5092968;28;20044;-84
2021/01/13 09:24:07;;;;;;;24.33;13.90;;;6.80;1.00;;;;;;5092984;28;20031;-85
2021/01/13 09:26:37;;;;;;;21.40;12.82;;;6.90;1.00;;;;;;5091811;28;20016;-84
2021/01/13 09:29:10;;;;;;;21.58;12.98;;;6.70;1.00;;;;;;5106501;28;20032;-84
2021/01/13 09:31:38;;;;;;;18.40;13.13;;;6.80;1.00;;;;;;5108903;28;20044;-84
2021/01/13 09:34:05;;;;;;;21.63;13.25;;;6.90;1.00;;;;;;5091787;28;20539;-84
2021/01/13 09:36:58;;;;;;;18.67;13.88;;;7.00;1.00;;;;;;5093189;28;20095;-84
2021/01/13 09:39:35;;;;;;;17.75;12.98;;;7.00;1.00;;;;;;5092752;28;20046;-84
2021/01/13 09:42:06;;;;;;;18.38;13.90;;;7.00;1.00;;;;;;5092280;28;20093;-84
2021/01/13 09:44:34;;;;;;;21.73;13.60;;;7.00;1.00;;;;;;5092913;28;20028;-84
2021/01/13 09:47:20;;;;;;;21.25;14.45;;;6.90;1.00;;;;;;5091699;28;20428;-84
2021/01/13 09:49:49;;;;;;;19.52;13.38;;;6.90;1.00;;;;;;5092685;28;20020;-84
2021/01/13 09:52:15;;;;;;;18.27;13.98;;;7.00;1.00;;;;;;5092648;28;20024;-84
2021/01/13 09:54:48;;;;;;;20.67;15.32;;;7.10;1.00;;;;;;5092887;28;20012;-85
2021/01/13 09:57:15;;;;;;;20.00;15.23;;;7.00;1.00;;;;;;5091674;28;20457;-85
2021/01/13 09:59:57;;;;;;;38.03;26.27;;;7.10;1.00;;;;;;5092886;28;20389;-84
2021/01/13 10:02:23;;;;;;;23.63;17.88;;;7.10;1.00;;;;;;5091408;28;20027;-84
2021/01/13 10:04:52;;;;;;;21.08;15.50;;;7.30;1.00;;;;;;5092793;28;20028;-84
2021/01/13 10:07:21;;;;;;;19.48;14.77;;;7.30;1.00;;;;;;5092762;28;20050;-84
2021/01/13 10:09:48;;;;;;;19.88;14.00;;;7.40;1.00;;;;;;5092444;28;20056;-85
2021/01/13 10:12:18;;;;;;;16.90;12.80;;;7.20;1.00;;;;;;5093087;28;20020;-84
2021/01/13 10:15:00;;;;;;;19.20;12.73;;;7.30;1.00;;;;;;5091436;28;20024;-84
2021/01/13 10:17:26;;;;;;;14.95;11.63;;;7.50;1.00;;;;;;5092838;28;20027;-85
2021/01/13 10:19:55;;;;;;;15.40;12.05;;;7.60;1.00;;;;;;5092666;28;20028;-84
2021/01/13 10:22:25;;;;;;;16.63;12.57;;;7.60;1.00;;;;;;5092157;28;20374;-84
2021/01/13 10:24:51;;;;;;;19.83;14.07;;;7.60;1.00;;;;;;5092575;28;20066;-84
2021/01/13 10:27:22;;;;;;;26.85;15.10;;;7.60;1.00;;;;;;5094374;28;20393;-84
2021/01/13 10:29:48;;;;;;;21.13;14.38;;;7.60;1.00;;;;;;5108017;28;20032;-84
2021/01/13 10:32:15;;;;;;;23.48;14.43;;;7.60;1.00;;;;;;5104217;28;20081;-84
2021/01/13 10:34:41;;;;;;;23.67;14.77;;;7.50;1.00;;;;;;5092617;28;20017;-85
2021/01/13 10:37:08;;;;;;;19.63;13.82;;;7.30;1.00;;;;;;5091976;28;20603;-84
2021/01/13 10:39:34;;;;;;;23.60;15.20;;;7.40;1.00;;;;;;5092497;28;20028;-85
2021/01/13 10:42:07;;;;;;;20.73;15.88;;;7.40;1.00;;;;;;5092363;28;20112;-84
2021/01/13 10:44:34;;;;;;;23.65;14.65;;;7.40;1.00;;;;;;5092349;28;20085;-84
2021/01/13 10:47:08;;;;;;;22.92;15.95;;;7.50;1.00;;;;;;5092076;28;20085;-84
2021/01/13 10:49:41;;;;;;;20.92;14.48;;;7.60;1.00;;;;;;5091808;28;20062;-84
2021/01/13 10:52:20;;;;;;;20.45;14.25;;;7.70;1.00;;;;;;5092577;28;20066;-85
2021/01/13 10:54:48;;;;;;;18.10;13.63;;;7.80;1.00;;;;;;5096180;28;20024;-84
2021/01/13 10:57:15;;;;;;;17.63;13.73;;;7.70;1.00;;;;;;5097864;28;20032;-85
2021/01/13 10:59:43;;;;;;;18.83;13.48;;;7.80;1.00;;;;;;5095776;28;20044;-85
2021/01/13 11:02:16;;;;;;;17.10;12.27;;;7.90;1.00;;;;;;5095768;28;20020;-84
2021/01/13 11:04:44;;;;;;;15.65;12.13;;;8.10;1.00;;;;;;5095646;28;20055;-84
2021/01/13 11:07:15;;;;;;;17.80;12.75;;;8.10;1.00;;;;;;5095439;28;20107;-84
2021/01/13 11:09:49;;;;;;;17.20;13.40;;;8.20;1.00;;;;;;5095387;28;20028;-84
2021/01/13 11:12:22;;;;;;;22.00;14.93;;;8.10;1.00;;;;;;5094641;28;20081;-84
2021/01/13 11:14:50;;;;;;;21.63;16.23;;;8.20;1.00;;;;;;5095718;28;20496;-84
2021/01/13 11:17:17;;;;;;;23.27;17.58;;;8.20;1.00;;;;;;5095544;28;20060;-84
2021/01/13 11:20:07;;;;;;;19.98;16.23;;;8.10;1.00;;;;;;5095185;28;20020;-84
2021/01/13 11:22:46;;;;;;;22.38;15.25;;;8.10;1.00;;;;;;5088559;28;20081;-85
2021/01/13 11:25:37;;;;;;;18.85;14.43;;;8.40;1.00;;;;;;5093482;28;20440;-84
2021/01/13 11:28:07;;;;;;;21.52;16.00;;;8.50;1.00;;;;;;5089963;28;20039;-84
2021/01/13 11:30:38;;;;;;;22.98;16.65;;;8.60;1.00;;;;;;5093705;28;20489;-84
2021/01/13 11:33:10;;;;;;;18.13;13.35;;;8.60;1.00;;;;;;5110330;28;20139;-84
2021/01/13 11:35:42;;;;;;;20.65;14.38;;;8.60;1.00;;;;;;5114226;28;20430;-85
2021/01/13 11:38:35;;;;;;;20.95;14.43;;;8.50;1.00;;;;;;5113704;28;20181;-84
2021/01/13 11:41:30;;;;;;;17.17;13.57;;;8.60;1.00;;;;;;5108276;28;20547;-84
2021/01/13 11:44:34;;;;;;;17.13;13.70;;;8.60;1.00;;;;;;5093590;28;20067;-84
2021/01/13 11:47:06;;;;;;;19.63;13.43;;;8.70;1.00;;;;;;5072802;28;20036;-84
2021/01/13 11:49:52;;;;;;;18.33;14.27;;;8.70;1.00;;;;;;5109879;28;20067;-84
2021/01/13 11:52:19;;;;;;;18.70;14.20;;;8.80;1.00;;;;;;5115241;28;20032;-85
2021/01/13 11:55:03;;;;;;;18.48;13.27;;;8.90;1.00;;;;;;5115238;28;20076;-84
2021/01/13 11:57:34;;;;;;;16.05;12.50;;;9.10;1.00;;;;;;5093851;28;20093;-84
2021/01/13 12:00:17;;;;;;;15.25;12.55;;;9.10;1.00;;;;;;5094746;28;20477;-84
2021/01/13 12:02:52;;;;;;;16.45;13.07;;;9.00;1.00;;;;;;5092962;28;20429;-84
2021/01/13 12:05:31;;;;;;;14.88;12.32;;;9.00;1.00;;;;;;5093213;28;20027;-84
2021/01/13 12:08:04;;;;;;;16.58;11.52;;;9.00;1.00;;;;;;5094521;28;20489;-84
2021/01/13 12:10:40;;;;;;;15.43;11.40;;;9.10;1.00;;;;;;5102485;28;20115;-84
2021/01/13 12:13:18;;;;;;;13.48;11.10;;;9.20;1.00;;;;;;5114641;28;20487;-84
2021/01/13 12:16:02;;;;;;;14.10;12.43;;;9.10;1.00;;;;;;5113680;28;20024;-84
2021/01/13 12:18:33;;;;;;;16.85;12.55;;;9.10;1.00;;;;;;5112873;28;20027;-84
2021/01/13 12:21:29;;;;;;;16.58;13.48;;;9.10;1.00;;;;;;5114401;28;20065;-84
2021/01/13 12:23:56;;;;;;;17.58;14.32;;;9.00;1.00;;;;;;5108694;28;20036;-84
2021/01/13 12:26:33;;;;;;;16.60;13.82;;;8.90;1.00;;;;;;5093807;28;20028;-85
2021/01/13 12:29:02;;;;;;;21.20;15.55;;;8.90;1.00;;;;;;5094040;28;20020;-84
2021/01/13 12:31:45;;;;;;;17.65;14.48;;;8.90;1.00;;;;;;5093980;28;20408;-84
2021/01/13 12:34:15;;;;;;;19.38;14.20;;;8.80;1.00;;;;;;5093919;28;20027;-84
2021/01/13 12:36:43;;;;;;;17.60;15.23;;;8.80;1.00;;;;;;5093778;28;20028;-85
2021/01/13 12:39:09;;;;;;;18.50;15.63;;;8.80;1.00;;;;;;5094081;28;20099;-84
2021/01/13 12:41:36;;;;;;;23.85;17.58;;;8.90;1.00;;;;;;5093402;28;20067;-84
2021/01/13 12:44:11;;;;;;;26.13;18.60;;;8.80;1.00;;;;;;5094005;28;20023;-84
2021/01/13 12:46:46;;;;;;;22.90;17.48;;;8.80;1.00;;;;;;5093192;28;20485;-84
2021/01/13 12:49:12;;;;;;;20.98;16.27;;;8.80;1.00;;;;;;5093730;28;20024;-84
2021/01/13 12:51:37;;;;;;;23.42;16.70;;;8.70;1.00;;;;;;5093725;28;20024;-84
2021/01/13 12:54:03;;;;;;;22.13;17.20;;;8.80;1.00;;;;;;5091545;28;20020;-84
2021/01/13 12:56:31;;;;;;;21.00;16.50;;;8.80;1.00;;;;;;5112280;28;21158;-84
2021/01/13 12:58:59;;;;;;;23.90;16.13;;;8.90;1.00;;;;;;5114118;28;20031;-85
2021/01/13 13:01:26;;;;;;;22.33;17.88;;;8.70;1.00;;;;;;5112234;28;20041;-84
2021/01/13 13:03:53;;;;;;;21.73;17.40;;;8.80;1.00;;;;;;5112492;28;20545;-84
2021/01/13 13:06:27;;;;;;;25.23;18.30;;;8.70;1.00;;;;;;5112505;28;20023;-84
2021/01/13 13:08:56;;;;;;;21.92;17.55;;;8.60;1.00;;;;;;5109628;28;20092;-84
2021/01/13 13:11:24;;;;;;;21.08;16.13;;;8.60;1.00;;;;;;5112099;28;20034;-84
2021/01/13 13:13:50;;;;;;;22.65;17.15;;;8.60;1.00;;;;;;5113602;28;20020;-84
2021/01/13 13:16:15;;;;;;;26.02;18.58;;;8.70;1.00;;;;;;5113038;28;20088;-84